Terminal Aerodrome Forecast
Issued by NWS

Home | Current Version | Previous Version | Text Only | Print | Product List | Glossary Off
Versions: 1 2 3 4 5 6 7 8 9 10 11 12 13 14 15 16

127
FTUS43 KBIS 231211 AAA
TAFJMS
TAF AMD
KJMS 231211Z 2312/2412 06013G21KT P6SM OVC007
     FM240900 08012G21KT P6SM OVC010
     FM241000 07012G20KT P6SM -RASN OVC010=

USA.gov is the U.S. government's official web portal to all federal, state and local government web resources and services.